Time;durP1;ratioP1;P1;durP2;ratioP2;P2;SDS_P1;SDS_P2;PMS_P1;PMS_P2;Temp;Humidity;BMP_temperature;BMP_pressure;BME280_temperature;BME280_humidity;BME280_pressure;Samples;Min_cycle;Max_cycle;Signal;HPM_P1;HPM_P2
2024/02/26 00:02:21;;;;;;;6.67;2.47;;;7.00;90.20;;;;;;4998915;28;20941;-68
2024/02/26 00:04:50;;;;;;;4.90;2.40;;;6.90;90.20;;;;;;5011952;28;20457;-68
2024/02/26 00:07:17;;;;;;;4.47;1.87;;;6.90;90.20;;;;;;5005841;28;20454;-68
2024/02/26 00:09:44;;;;;;;6.30;2.13;;;6.90;90.20;;;;;;5013859;28;20467;-68
2024/02/26 00:12:11;;;;;;;4.70;2.20;;;6.90;90.20;;;;;;5013761;28;20488;-68
2024/02/26 00:14:37;;;;;;;5.63;2.53;;;6.80;90.20;;;;;;5013529;28;20456;-69
2024/02/26 00:17:04;;;;;;;5.53;2.70;;;6.80;90.20;;;;;;5014028;28;20480;-69
2024/02/26 00:19:31;;;;;;;4.77;2.20;;;6.70;92.10;;;;;;5014123;28;20475;-69
2024/02/26 00:21:59;;;;;;;4.97;2.80;;;6.70;93.50;;;;;;5006828;28;20984;-69
2024/02/26 00:24:26;;;;;;;5.57;2.67;;;6.60;93.60;;;;;;5004961;28;20464;-69
2024/02/26 00:26:54;;;;;;;5.17;2.80;;;6.60;96.70;;;;;;5007300;28;20965;-69
2024/02/26 00:29:21;;;;;;;6.00;3.90;;;6.50;96.50;;;;;;5012237;28;20445;-69
2024/02/26 00:31:48;;;;;;;4.90;3.47;;;6.50;96.70;;;;;;5013572;28;20481;-69
2024/02/26 00:34:15;;;;;;;5.70;4.50;;;6.40;96.70;;;;;;5012856;28;20560;-69
2024/02/26 00:36:41;;;;;;;6.00;5.37;;;6.40;96.70;;;;;;5000495;28;20454;-69
2024/02/26 00:39:10;;;;;;;9.07;8.37;;;6.40;96.70;;;;;;5002109;28;20457;-69
2024/02/26 00:41:40;;;;;;;8.33;7.73;;;6.30;96.70;;;;;;5005484;28;20453;-70
2024/02/26 00:44:08;;;;;;;17.20;16.00;;;6.30;98.30;;;;;;5005118;28;20521;-70
2024/02/26 00:46:35;;;;;;;18.80;17.70;;;6.30;99.90;;;;;;5012416;28;20833;-70
2024/02/26 00:49:02;;;;;;;25.70;24.50;;;6.20;99.90;;;;;;5012132;28;20457;-69
2024/02/26 00:51:29;;;;;;;26.77;25.47;;;6.20;99.90;;;;;;5012892;28;20858;-69
2024/02/26 00:53:56;;;;;;;24.97;23.67;;;6.20;99.90;;;;;;5012876;28;20476;-69
2024/02/26 00:56:24;;;;;;;22.57;21.13;;;6.30;99.90;;;;;;5013330;28;20469;-69
2024/02/26 00:58:51;;;;;;;16.00;14.97;;;6.30;99.90;;;;;;5013077;28;20467;-69
2024/02/26 01:01:18;;;;;;;14.77;13.97;;;6.40;99.90;;;;;;5013110;28;20511;-69
2024/02/26 01:03:45;;;;;;;13.63;12.87;;;6.40;99.90;;;;;;5007491;28;20474;-69
2024/02/26 01:06:11;;;;;;;8.80;8.00;;;6.40;99.90;;;;;;5010454;28;20452;-69
2024/02/26 01:08:39;;;;;;;6.20;5.67;;;6.50;96.70;;;;;;5012960;28;20957;-69
2024/02/26 01:11:05;;;;;;;5.60;5.10;;;6.60;96.80;;;;;;4996580;28;20458;-69
2024/02/26 01:13:34;;;;;;;7.23;6.63;;;6.60;97.10;;;;;;4992787;28;20502;-69
2024/02/26 01:16:01;;;;;;;6.60;5.90;;;6.70;96.80;;;;;;5001463;28;20532;-69
2024/02/26 01:18:28;;;;;;;11.00;10.20;;;6.80;96.80;;;;;;5003518;28;20547;-69
2024/02/26 01:20:55;;;;;;;17.07;16.17;;;6.70;99.90;;;;;;5012438;28;20461;-69
2024/02/26 01:23:22;;;;;;;14.43;13.53;;;6.80;99.90;;;;;;5001931;28;20478;-70
2024/02/26 01:25:49;;;;;;;15.40;14.47;;;6.80;98.70;;;;;;5007097;28;20468;-71
2024/02/26 01:28:16;;;;;;;25.13;23.93;;;6.80;99.90;;;;;;5012718;28;20468;-71
2024/02/26 01:30:44;;;;;;;26.50;25.30;;;6.80;99.90;;;;;;5012618;28;20465;-70
2024/02/26 01:33:11;;;;;;;29.83;28.53;;;6.80;99.90;;;;;;5011520;28;20492;-70
2024/02/26 01:35:38;;;;;;;40.77;39.07;;;6.80;99.90;;;;;;5011943;28;20949;-70
2024/02/26 01:38:05;;;;;;;83.50;80.43;;;6.80;99.90;;;;;;5012610;28;20467;-70
2024/02/26 01:40:32;;;;;;;103.13;99.63;;;6.70;99.90;;;;;;5004552;28;20555;-70
2024/02/26 01:43:00;;;;;;;170.60;165.10;;;6.70;99.90;;;;;;5003785;28;20598;-71
2024/02/26 01:45:28;;;;;;;184.93;179.13;;;6.60;99.90;;;;;;5005395;28;20665;-71
2024/02/26 01:47:57;;;;;;;239.97;232.47;;;6.60;99.90;;;;;;4997101;28;20461;-71
2024/02/26 01:50:25;;;;;;;329.50;319.20;;;6.60;99.90;;;;;;4993012;28;20848;-71
2024/02/26 01:52:53;;;;;;;416.40;402.50;;;6.60;99.90;;;;;;4998498;28;20558;-71
2024/02/26 01:55:21;;;;;;;465.33;448.53;;;6.50;99.90;;;;;;5005412;28;20855;-71
2024/02/26 01:57:51;;;;;;;486.13;468.23;;;6.50;99.90;;;;;;5012185;28;20483;-71
2024/02/26 02:00:20;;;;;;;505.33;486.13;;;6.50;99.90;;;;;;5012165;28;20467;-71
2024/02/26 02:02:48;;;;;;;623.77;596.40;;;6.50;99.90;;;;;;5012212;28;20476;-71
2024/02/26 02:05:18;;;;;;;635.83;607.07;;;6.40;99.90;;;;;;5005843;28;20453;-71
2024/02/26 02:07:45;;;;;;;624.33;596.20;;;6.40;99.90;;;;;;5012221;28;20457;-71
2024/02/26 02:10:12;;;;;;;591.67;566.37;;;6.40;99.90;;;;;;5011248;28;20457;-71
2024/02/26 02:12:39;;;;;;;647.13;617.93;;;6.40;99.90;;;;;;4997156;28;20499;-70
2024/02/26 02:15:07;;;;;;;598.20;572.40;;;6.40;99.90;;;;;;5021791;28;20457;-70
2024/02/26 02:17:34;;;;;;;597.47;571.90;;;6.40;99.90;;;;;;5024278;28;20456;-71
2024/02/26 02:20:01;;;;;;;646.83;617.47;;;6.40;99.90;;;;;;5016544;28;20873;-71
2024/02/26 02:22:31;;;;;;;652.40;622.80;;;6.40;99.90;;;;;;4992866;28;20476;-71
2024/02/26 02:24:58;;;;;;;646.27;616.87;;;6.30;99.90;;;;;;5007440;28;20449;-70
2024/02/26 02:27:26;;;;;;;670.00;638.93;;;6.40;99.90;;;;;;5008808;28;20458;-71
2024/02/26 02:29:54;;;;;;;660.03;629.43;;;6.30;99.90;;;;;;5007793;28;20467;-71
2024/02/26 02:32:21;;;;;;;651.87;621.50;;;6.30;99.90;;;;;;4998920;28;20491;-71
2024/02/26 02:34:48;;;;;;;678.50;646.40;;;6.50;99.90;;;;;;5015871;28;20459;-71
2024/02/26 02:37:15;;;;;;;638.83;609.23;;;6.30;99.90;;;;;;5016243;28;20457;-71
2024/02/26 02:39:44;;;;;;;638.00;608.00;;;6.40;99.90;;;;;;5015531;28;20465;-71
2024/02/26 02:42:12;;;;;;;601.57;574.17;;;6.40;99.90;;;;;;5015482;28;20515;-71
2024/02/26 02:44:38;;;;;;;626.90;597.97;;;6.40;99.90;;;;;;5015391;28;20963;-71
2024/02/26 02:47:05;;;;;;;624.23;595.33;;;6.40;99.90;;;;;;5015764;28;20461;-71
2024/02/26 02:49:32;;;;;;;648.47;617.77;;;6.40;99.90;;;;;;5015684;28;20461;-71
2024/02/26 02:51:59;;;;;;;667.80;635.77;;;6.40;99.90;;;;;;5007255;28;20480;-71
2024/02/26 02:54:26;;;;;;;684.07;651.47;;;6.40;99.90;;;;;;5006511;28;20916;-71
2024/02/26 02:56:54;;;;;;;687.23;654.77;;;6.30;99.90;;;;;;5015676;28;20464;-71
2024/02/26 02:59:21;;;;;;;697.20;663.80;;;6.40;99.90;;;;;;5015443;28;20457;-71
2024/02/26 03:01:48;;;;;;;755.07;717.90;;;6.40;99.90;;;;;;5005272;28;20445;-71
2024/02/26 03:04:14;;;;;;;782.23;742.70;;;6.30;99.90;;;;;;5012596;28;20495;-71
2024/02/26 03:06:41;;;;;;;837.17;793.40;;;6.30;99.90;;;;;;5015142;28;20457;-71
2024/02/26 03:09:09;;;;;;;811.03;769.50;;;6.30;99.90;;;;;;5014992;28;20469;-71
2024/02/26 03:11:36;;;;;;;817.27;775.70;;;6.30;99.90;;;;;;5015405;28;20863;-71
2024/02/26 03:14:04;;;;;;;822.77;780.43;;;6.30;99.90;;;;;;5014024;28;20475;-71
2024/02/26 03:16:31;;;;;;;864.90;818.20;;;6.30;99.90;;;;;;5007461;28;20838;-71
2024/02/26 03:18:58;;;;;;;870.37;823.70;;;6.30;99.90;;;;;;5014762;28;20955;-71
2024/02/26 03:21:26;;;;;;;869.90;822.77;;;6.30;99.90;;;;;;5014889;28;20567;-71
2024/02/26 03:23:53;;;;;;;898.00;849.03;;;6.30;99.90;;;;;;5013820;28;20472;-71
2024/02/26 03:26:20;;;;;;;894.17;845.07;;;6.30;99.90;;;;;;5015081;28;20464;-71
2024/02/26 03:28:46;;;;;;;894.40;845.13;;;6.20;99.90;;;;;;5015403;28;20815;-71
2024/02/26 03:31:14;;;;;;;911.33;859.23;;;6.20;99.90;;;;;;5014954;28;20849;-71
2024/02/26 03:33:41;;;;;;;917.33;863.63;;;6.20;99.90;;;;;;5017091;28;20486;-72
2024/02/26 03:36:08;;;;;;;902.97;850.57;;;6.40;99.90;;;;;;5011879;28;20453;-71
2024/02/26 03:38:35;;;;;;;897.33;846.13;;;6.20;99.90;;;;;;5010900;28;20457;-71
2024/02/26 03:41:02;;;;;;;903.90;850.40;;;6.20;99.90;;;;;;5010786;28;20456;-71
2024/02/26 03:43:29;;;;;;;908.20;853.20;;;6.20;99.90;;;;;;5009728;28;20474;-72
2024/02/26 03:45:55;;;;;;;905.70;852.60;;;6.20;99.90;;;;;;5001762;28;20449;-72
2024/02/26 03:48:23;;;;;;;914.70;859.33;;;6.20;99.90;;;;;;5014558;28;20460;-72
2024/02/26 03:50:50;;;;;;;914.07;857.97;;;6.20;99.90;;;;;;5014596;28;20457;-71
2024/02/26 03:53:18;;;;;;;918.40;860.33;;;6.20;99.90;;;;;;5013384;28;20484;-72
2024/02/26 03:55:44;;;;;;;912.37;855.23;;;6.20;99.90;;;;;;5014514;28;20455;-72
2024/02/26 03:58:14;;;;;;;909.43;852.17;;;6.20;99.90;;;;;;5014194;28;20952;-72
2024/02/26 04:00:40;;;;;;;905.63;848.33;;;6.20;99.90;;;;;;5013317;28;20838;-72
2024/02/26 04:03:07;;;;;;;896.70;839.60;;;6.20;99.90;;;;;;5003185;28;20472;-72
2024/02/26 04:05:35;;;;;;;901.40;843.40;;;6.20;99.90;;;;;;5010064;28;20453;-72
2024/02/26 04:08:03;;;;;;;910.53;851.17;;;6.20;99.90;;;;;;5009468;28;20949;-73
2024/02/26 04:10:30;;;;;;;911.07;849.13;;;6.20;99.90;;;;;;5001211;28;20963;-74
2024/02/26 04:12:57;;;;;;;906.40;846.40;;;6.20;99.90;;;;;;5012782;28;20484;-71
2024/02/26 04:15:24;;;;;;;909.80;848.67;;;6.20;99.90;;;;;;5013585;28;20540;-72
2024/02/26 04:17:51;;;;;;;906.03;844.83;;;6.20;99.90;;;;;;5009425;28;20956;-72
2024/02/26 04:20:18;;;;;;;907.80;846.00;;;6.20;99.90;;;;;;5003643;28;21045;-72
2024/02/26 04:22:46;;;;;;;900.20;838.07;;;6.20;99.90;;;;;;5008710;28;20470;-72
2024/02/26 04:25:13;;;;;;;901.13;838.40;;;6.20;99.90;;;;;;5010165;28;20952;-72
2024/02/26 04:27:40;;;;;;;894.90;833.70;;;6.20;99.90;;;;;;5009273;28;20842;-72
2024/02/26 04:30:08;;;;;;;891.90;832.77;;;6.20;99.90;;;;;;4999510;28;20445;-72
2024/02/26 04:32:35;;;;;;;896.63;836.07;;;6.20;99.90;;;;;;5008201;28;20496;-72
2024/02/26 04:35:02;;;;;;;895.63;834.33;;;6.20;99.90;;;;;;5004670;28;20530;-71
2024/02/26 04:37:30;;;;;;;887.63;827.43;;;6.20;99.90;;;;;;5008213;28;20460;-72
2024/02/26 04:40:00;;;;;;;895.00;833.80;;;6.20;99.90;;;;;;5013735;28;20456;-72
2024/02/26 04:42:28;;;;;;;890.43;828.10;;;6.20;99.90;;;;;;5008752;28;20556;-72
2024/02/26 04:44:56;;;;;;;890.27;827.13;;;6.20;99.90;;;;;;5009022;28;20449;-72
2024/02/26 04:47:23;;;;;;;889.13;824.20;;;6.20;99.90;;;;;;5013064;28;20544;-72
2024/02/26 04:49:50;;;;;;;886.57;821.10;;;6.10;99.90;;;;;;5011943;28;20453;-73
2024/02/26 04:52:17;;;;;;;883.80;817.70;;;6.10;99.90;;;;;;5011202;28;20457;-75
2024/02/26 04:54:44;;;;;;;880.63;814.23;;;6.10;99.90;;;;;;5011515;28;20449;-75
2024/02/26 04:57:13;;;;;;;868.83;801.67;;;6.10;99.90;;;;;;5011820;28;20463;-72
2024/02/26 04:59:40;;;;;;;865.57;797.90;;;6.10;99.90;;;;;;5012744;28;20471;-72
2024/02/26 05:02:07;;;;;;;863.77;796.67;;;6.10;99.90;;;;;;5012783;28;20468;-72
2024/02/26 05:04:34;;;;;;;872.73;804.40;;;6.10;99.90;;;;;;5003476;28;20841;-72
2024/02/26 05:07:01;;;;;;;872.27;803.40;;;6.10;99.90;;;;;;5001182;28;20457;-72
2024/02/26 05:09:27;;;;;;;869.33;799.67;;;6.10;99.90;;;;;;5013602;28;20452;-72
2024/02/26 05:11:54;;;;;;;867.33;795.90;;;6.10;99.90;;;;;;5011239;28;20460;-71
2024/02/26 05:14:22;;;;;;;864.13;792.80;;;6.10;99.90;;;;;;5002764;28;20481;-71
2024/02/26 05:16:49;;;;;;;867.07;795.20;;;6.10;99.90;;;;;;5010592;28;20876;-72
2024/02/26 05:19:16;;;;;;;858.80;787.50;;;6.10;99.90;;;;;;5009520;28;20454;-72
2024/02/26 05:21:44;;;;;;;871.30;798.70;;;6.10;99.90;;;;;;5012734;28;20456;-71
2024/02/26 05:24:11;;;;;;;878.63;802.17;;;6.10;99.90;;;;;;5003433;28;21042;-71
2024/02/26 05:26:38;;;;;;;878.60;801.37;;;6.10;99.90;;;;;;5012318;28;20449;-71
2024/02/26 05:29:04;;;;;;;869.37;795.20;;;6.20;99.90;;;;;;4996622;28;20946;-71
2024/02/26 05:31:33;;;;;;;876.10;800.20;;;6.10;99.90;;;;;;5008484;28;20452;-71
2024/02/26 05:34:01;;;;;;;881.23;804.10;;;6.10;99.90;;;;;;5005398;28;20883;-71
2024/02/26 05:36:33;;;;;;;888.10;809.80;;;6.10;99.90;;;;;;5007653;28;20453;-72
2024/02/26 05:39:00;;;;;;;887.60;807.70;;;6.10;99.90;;;;;;5000970;28;20831;-71
2024/02/26 05:41:26;;;;;;;890.07;809.93;;;6.10;99.90;;;;;;5011511;28;20945;-71
2024/02/26 05:43:53;;;;;;;887.17;807.27;;;6.10;99.90;;;;;;5005469;28;20465;-71
2024/02/26 05:46:21;;;;;;;891.00;809.80;;;6.10;99.90;;;;;;5011090;28;20953;-71
2024/02/26 05:48:51;;;;;;;899.63;818.20;;;6.10;99.90;;;;;;5010301;28;20457;-71
2024/02/26 05:51:18;;;;;;;898.37;816.50;;;6.10;99.90;;;;;;5010920;28;20459;-71
2024/02/26 05:53:46;;;;;;;890.67;807.60;;;6.00;99.90;;;;;;5000437;28;20565;-74
2024/02/26 05:56:13;;;;;;;889.97;805.57;;;6.00;99.90;;;;;;5009459;28;20453;-70
2024/02/26 05:58:40;;;;;;;903.63;819.10;;;6.00;99.90;;;;;;5008550;28;20458;-71
2024/02/26 06:01:07;;;;;;;908.93;823.87;;;5.90;99.90;;;;;;5011468;28;20536;-71
2024/02/26 06:03:34;;;;;;;928.07;843.60;;;5.90;99.90;;;;;;5004034;28;20464;-71
2024/02/26 06:06:02;;;;;;;932.53;847.63;;;5.80;99.90;;;;;;5011497;28;20967;-71
2024/02/26 06:08:28;;;;;;;938.33;851.93;;;5.80;99.90;;;;;;5008794;28;20461;-72
2024/02/26 06:10:55;;;;;;;929.67;844.57;;;5.80;99.90;;;;;;4996026;28;20839;-71
2024/02/26 06:13:22;;;;;;;913.47;828.77;;;5.80;99.90;;;;;;5010694;28;20481;-71
2024/02/26 06:15:49;;;;;;;913.30;826.57;;;5.70;99.90;;;;;;5007968;28;20463;-71
2024/02/26 06:18:16;;;;;;;919.70;831.97;;;5.70;99.90;;;;;;5002578;28;20832;-71
2024/02/26 06:20:42;;;;;;;916.93;829.50;;;5.70;99.90;;;;;;5005938;28;20457;-71
2024/02/26 06:23:11;;;;;;;929.07;842.80;;;5.70;99.90;;;;;;5003625;28;20472;-71
2024/02/26 06:25:37;;;;;;;946.47;858.50;;;5.70;99.90;;;;;;5000012;28;20454;-71
2024/02/26 06:28:05;;;;;;;939.80;853.57;;;5.60;99.90;;;;;;5003447;28;20450;-72
2024/02/26 06:30:32;;;;;;;940.00;854.43;;;5.60;99.90;;;;;;5001079;28;20449;-71
2024/02/26 06:32:59;;;;;;;955.57;869.20;;;5.60;99.90;;;;;;5008033;28;20994;-71
2024/02/26 06:35:26;;;;;;;963.80;878.17;;;5.60;99.90;;;;;;5011409;28;20483;-72
2024/02/26 06:37:53;;;;;;;970.57;883.37;;;5.70;99.90;;;;;;5011734;28;20453;-71
2024/02/26 06:40:21;;;;;;;973.73;885.47;;;5.60;99.90;;;;;;5011786;28;20463;-71
2024/02/26 06:42:50;;;;;;;987.63;897.07;;;5.50;99.90;;;;;;5003073;28;20477;-71
2024/02/26 06:45:16;;;;;;;992.93;901.60;;;5.50;99.90;;;;;;5005732;28;20950;-71
2024/02/26 06:47:43;;;;;;;984.40;895.10;;;5.50;99.90;;;;;;5011439;28;20459;-71
2024/02/26 06:50:12;;;;;;;965.90;875.57;;;5.50;99.90;;;;;;5003305;28;20457;-72
2024/02/26 06:52:39;;;;;;;969.00;880.43;;;5.50;99.90;;;;;;5004167;28;20880;-71
2024/02/26 06:55:08;;;;;;;986.73;896.83;;;5.50;99.90;;;;;;5007929;28;20863;-71
2024/02/26 06:57:36;;;;;;;961.03;872.13;;;5.50;99.90;;;;;;5009390;28;20459;-71
2024/02/26 07:00:04;;;;;;;977.00;886.40;;;5.60;99.90;;;;;;5005950;28;20458;-74
2024/02/26 07:02:31;;;;;;;983.77;892.57;;;5.70;99.90;;;;;;5002524;28;20465;-72
2024/02/26 07:04:58;;;;;;;991.43;901.67;;;5.50;99.90;;;;;;5005132;28;20452;-71
2024/02/26 07:07:25;;;;;;;979.83;888.30;;;5.50;99.90;;;;;;5010907;28;20829;-71
2024/02/26 07:09:52;;;;;;;988.03;896.57;;;5.60;99.90;;;;;;5005239;28;20454;-71
2024/02/26 07:12:21;;;;;;;968.63;878.70;;;5.50;99.90;;;;;;5003508;28;20822;-71
2024/02/26 07:14:49;;;;;;;976.80;887.10;;;5.50;99.90;;;;;;5005140;28;20477;-71
2024/02/26 07:17:17;;;;;;;979.60;888.60;;;5.60;99.90;;;;;;4992876;28;20493;-71
2024/02/26 07:19:43;;;;;;;969.97;880.20;;;5.60;99.90;;;;;;5001574;28;20886;-71
2024/02/26 07:22:10;;;;;;;982.70;892.63;;;5.60;99.90;;;;;;5013039;28;20527;-71
2024/02/26 07:24:37;;;;;;;985.67;894.80;;;5.60;99.90;;;;;;5005442;28;20510;-71
2024/02/26 07:27:05;;;;;;;972.07;880.77;;;5.60;99.90;;;;;;5011235;28;20873;-70
2024/02/26 07:29:31;;;;;;;928.83;836.67;;;5.60;99.90;;;;;;5001894;28;20453;-69
2024/02/26 07:32:00;;;;;;;942.17;850.87;;;5.60;99.90;;;;;;5014407;28;20911;-68
2024/02/26 07:34:29;;;;;;;957.43;864.90;;;5.60;99.90;;;;;;5013275;28;20491;-67
2024/02/26 07:36:55;;;;;;;965.67;873.30;;;5.70;99.90;;;;;;5013901;28;21012;-70
2024/02/26 07:39:22;;;;;;;967.33;874.63;;;5.70;99.90;;;;;;5002512;28;20468;-70
2024/02/26 07:41:51;;;;;;;944.27;854.40;;;5.70;99.90;;;;;;4999772;28;20457;-70
2024/02/26 07:44:18;;;;;;;964.53;872.97;;;5.70;99.90;;;;;;5013235;28;21031;-70
2024/02/26 07:46:45;;;;;;;931.40;841.60;;;5.70;99.90;;;;;;5013787;28;20459;-70
2024/02/26 07:49:13;;;;;;;928.87;838.60;;;5.70;99.90;;;;;;5012843;28;20457;-70
2024/02/26 07:51:40;;;;;;;916.43;826.40;;;5.70;99.90;;;;;;5013150;28;20457;-70
2024/02/26 07:54:10;;;;;;;927.07;837.77;;;5.70;99.90;;;;;;5012763;28;20489;-70
2024/02/26 07:56:37;;;;;;;932.03;843.37;;;5.80;99.90;;;;;;5004577;28;20457;-70
2024/02/26 07:59:03;;;;;;;934.57;846.33;;;5.80;99.90;;;;;;4997508;28;20458;-69
2024/02/26 08:01:30;;;;;;;934.07;846.57;;;5.80;99.90;;;;;;4993577;28;20854;-70
2024/02/26 08:03:58;;;;;;;920.97;832.30;;;5.80;99.90;;;;;;4993579;28;20473;-70
2024/02/26 08:06:27;;;;;;;926.63;838.20;;;5.80;99.90;;;;;;4993521;28;20458;-70
2024/02/26 08:08:53;;;;;;;933.47;843.97;;;5.80;99.90;;;;;;5008212;28;21127;-70
2024/02/26 08:11:20;;;;;;;935.93;846.70;;;5.80;99.90;;;;;;5012862;28;20479;-70
2024/02/26 08:13:47;;;;;;;925.17;835.90;;;5.80;99.90;;;;;;5012928;28;20485;-70
2024/02/26 08:16:14;;;;;;;928.77;839.47;;;5.80;99.90;;;;;;5013345;28;20453;-70
2024/02/26 08:18:41;;;;;;;934.30;845.10;;;5.80;99.90;;;;;;5008555;28;20458;-70
2024/02/26 08:21:08;;;;;;;923.37;833.53;;;5.90;99.90;;;;;;4994070;28;20950;-70
2024/02/26 08:23:36;;;;;;;922.87;833.37;;;5.90;99.90;;;;;;5012468;28;20476;-70
2024/02/26 08:26:07;;;;;;;929.17;839.47;;;5.90;99.90;;;;;;5005034;28;21038;-70
2024/02/26 08:28:33;;;;;;;935.17;844.67;;;5.90;99.90;;;;;;4993152;28;20964;-70
2024/02/26 08:31:00;;;;;;;936.57;846.77;;;6.10;99.90;;;;;;4993422;28;20458;-70
2024/02/26 08:33:27;;;;;;;934.27;845.17;;;6.00;99.90;;;;;;4993132;28;20474;-70
2024/02/26 08:35:54;;;;;;;935.83;846.37;;;5.90;99.90;;;;;;4993616;28;20457;-70
2024/02/26 08:38:20;;;;;;;934.43;844.90;;;6.00;99.90;;;;;;5003254;28;20453;-70
2024/02/26 08:40:49;;;;;;;934.57;844.37;;;6.00;99.90;;;;;;5012407;28;20456;-70
2024/02/26 08:43:16;;;;;;;939.30;849.37;;;6.00;99.90;;;;;;5012232;28;20472;-71
2024/02/26 08:45:42;;;;;;;927.07;837.67;;;6.00;99.90;;;;;;5007441;28;20505;-70
2024/02/26 08:48:09;;;;;;;931.90;843.33;;;6.00;99.90;;;;;;5000348;28;20463;-70
2024/02/26 08:50:36;;;;;;;918.87;831.70;;;6.00;99.90;;;;;;5011861;28;20472;-70
2024/02/26 08:53:04;;;;;;;921.70;834.97;;;6.00;99.90;;;;;;5012862;28;20543;-70
2024/02/26 08:55:30;;;;;;;922.53;836.40;;;6.00;99.90;;;;;;5012985;28;20488;-70
2024/02/26 08:57:58;;;;;;;906.10;820.50;;;6.00;99.90;;;;;;5013674;28;20457;-71
2024/02/26 09:00:25;;;;;;;922.53;836.83;;;6.00;99.90;;;;;;5013477;28;20459;-71
2024/02/26 09:02:52;;;;;;;926.83;838.75;;;6.00;99.90;;;;;;5013579;28;20450;-71
2024/02/26 09:05:19;;;;;;;916.72;829.58;;;6.00;99.90;;;;;;5011544;28;20938;-71
2024/02/26 09:07:46;;;;;;;898.00;816.50;;;6.00;99.90;;;;;;5013038;28;20688;-71
2024/02/26 09:10:13;;;;;;;892.80;811.20;;;6.10;99.90;;;;;;5012857;28;20449;-70
2024/02/26 09:12:40;;;;;;;903.13;821.70;;;6.10;99.90;;;;;;5000117;28;20470;-70
2024/02/26 09:15:09;;;;;;;899.10;817.60;;;6.10;99.90;;;;;;4992842;28;20485;-71
2024/02/26 09:17:35;;;;;;;882.73;800.40;;;6.10;99.90;;;;;;4993194;28;20454;-70
2024/02/26 09:20:02;;;;;;;882.07;800.40;;;6.10;99.90;;;;;;4992865;28;20464;-71
2024/02/26 09:22:29;;;;;;;869.20;787.30;;;6.10;99.90;;;;;;5004357;28;20225;-71
2024/02/26 09:24:56;;;;;;;867.70;785.60;;;6.10;99.90;;;;;;5012500;28;20449;-71
2024/02/26 09:27:23;;;;;;;869.97;789.83;;;6.10;99.90;;;;;;5012630;28;20457;-71
2024/02/26 09:29:50;;;;;;;869.57;789.20;;;6.20;99.90;;;;;;5012566;28;20523;-72
2024/02/26 09:32:18;;;;;;;879.17;798.27;;;6.20;99.90;;;;;;5002621;28;20460;-71
2024/02/26 09:34:45;;;;;;;871.83;790.50;;;6.20;99.90;;;;;;5006166;28;20528;-71
2024/02/26 09:37:12;;;;;;;875.53;794.03;;;6.20;99.90;;;;;;5012426;28;20539;-71
2024/02/26 09:39:39;;;;;;;865.10;785.80;;;6.30;99.90;;;;;;5012105;28;20836;-71
2024/02/26 09:42:09;;;;;;;864.37;783.57;;;6.30;99.90;;;;;;5012257;28;20452;-70
2024/02/26 09:44:41;;;;;;;870.40;789.20;;;6.30;99.90;;;;;;5012031;28;20888;-71
2024/02/26 09:47:10;;;;;;;878.40;799.00;;;6.30;99.90;;;;;;5012106;28;20461;-71
2024/02/26 09:49:39;;;;;;;878.30;798.60;;;6.30;99.90;;;;;;5008354;28;20454;-71
2024/02/26 09:52:09;;;;;;;877.60;798.10;;;6.40;99.90;;;;;;5008793;28;21048;-70
2024/02/26 09:54:36;;;;;;;897.13;817.03;;;6.40;99.90;;;;;;5011753;28;20535;-71
2024/02/26 09:57:04;;;;;;;892.57;813.00;;;6.40;99.90;;;;;;5004435;28;20460;-71
2024/02/26 09:59:39;;;;;;;901.30;819.47;;;6.30;99.90;;;;;;4992357;28;20466;-70
2024/02/26 10:02:09;;;;;;;906.87;824.60;;;6.40;99.90;;;;;;4992596;28;20453;-70
2024/02/26 10:04:38;;;;;;;897.20;816.53;;;6.40;99.90;;;;;;4992039;28;20460;-70
2024/02/26 10:07:08;;;;;;;895.80;815.73;;;6.40;99.90;;;;;;4992586;28;20449;-70
2024/02/26 10:09:35;;;;;;;887.27;807.97;;;6.50;99.90;;;;;;5004600;28;20483;-71
2024/02/26 10:12:01;;;;;;;892.67;812.67;;;6.50;99.90;;;;;;5011945;28;20449;-70
2024/02/26 10:14:27;;;;;;;896.70;815.83;;;6.60;99.90;;;;;;5008664;28;20485;-71
2024/02/26 10:16:55;;;;;;;886.80;808.40;;;6.70;99.90;;;;;;4992607;28;20465;-71
2024/02/26 10:19:31;;;;;;;871.27;795.03;;;6.80;99.90;;;;;;5002451;28;20696;-71
2024/02/26 10:22:01;;;;;;;860.23;787.70;;;6.80;99.90;;;;;;4996859;28;20456;-71
2024/02/26 10:24:28;;;;;;;863.67;791.10;;;6.60;99.90;;;;;;5007877;28;20457;-71
2024/02/26 10:26:56;;;;;;;841.57;770.70;;;6.70;99.90;;;;;;4992468;28;20465;-71
2024/02/26 10:29:24;;;;;;;855.83;784.53;;;6.60;99.90;;;;;;5002772;28;20480;-70
2024/02/26 10:31:52;;;;;;;863.00;790.83;;;6.50;99.90;;;;;;5012042;28;20467;-71
2024/02/26 10:34:19;;;;;;;883.47;808.53;;;6.50;99.90;;;;;;5011335;28;20485;-71
2024/02/26 10:36:46;;;;;;;880.00;805.30;;;6.50;99.90;;;;;;5003772;28;20459;-71
2024/02/26 10:39:14;;;;;;;873.70;797.10;;;6.50;99.90;;;;;;5003533;28;20469;-71
2024/02/26 10:41:41;;;;;;;875.83;798.80;;;6.50;99.90;;;;;;5012666;28;20483;-70
2024/02/26 10:44:10;;;;;;;873.07;796.20;;;6.50;99.90;;;;;;5012716;28;20469;-71
2024/02/26 10:46:37;;;;;;;848.13;771.83;;;6.60;99.90;;;;;;5006083;28;20461;-71
2024/02/26 10:49:08;;;;;;;842.40;764.87;;;6.70;99.90;;;;;;5012928;28;20452;-70
2024/02/26 10:51:37;;;;;;;845.00;767.47;;;6.90;99.90;;;;;;5006118;28;20483;-70
2024/02/26 10:54:07;;;;;;;848.60;773.03;;;7.00;99.90;;;;;;5015098;28;20487;-71
2024/02/26 10:56:37;;;;;;;862.30;786.03;;;7.20;99.90;;;;;;5015461;28;20449;-71
2024/02/26 10:59:06;;;;;;;849.20;776.30;;;7.30;99.90;;;;;;5015275;28;20464;-71
2024/02/26 11:01:33;;;;;;;855.07;783.37;;;7.30;99.90;;;;;;5015311;28;20464;-71
2024/02/26 11:04:01;;;;;;;854.10;784.70;;;7.40;99.90;;;;;;5007494;28;20862;-71
2024/02/26 11:06:29;;;;;;;848.73;784.87;;;7.30;99.90;;;;;;4995581;28;20946;-71
2024/02/26 11:08:57;;;;;;;849.70;785.30;;;7.10;99.90;;;;;;4995520;28;20454;-71
2024/02/26 11:11:24;;;;;;;855.90;791.53;;;7.10;99.90;;;;;;4995467;28;20462;-70
2024/02/26 11:13:54;;;;;;;851.17;784.67;;;7.00;99.90;;;;;;5009226;28;20468;-70
2024/02/26 11:16:22;;;;;;;848.37;781.63;;;7.10;99.90;;;;;;4996758;28;20529;-70
2024/02/26 11:18:50;;;;;;;838.83;771.17;;;7.00;99.90;;;;;;4995738;28;20458;-71
2024/02/26 11:21:18;;;;;;;847.70;780.00;;;7.20;99.90;;;;;;4995236;28;20457;-70
2024/02/26 11:23:47;;;;;;;845.77;777.60;;;7.30;99.90;;;;;;4994886;28;20477;-70
2024/02/26 11:26:17;;;;;;;846.40;781.20;;;7.40;99.90;;;;;;5004622;28;20835;-70
2024/02/26 11:28:44;;;;;;;862.47;797.53;;;7.30;99.90;;;;;;5009796;28;20454;-71
2024/02/26 11:31:14;;;;;;;858.83;794.97;;;7.40;99.90;;;;;;5004366;28;20453;-70
2024/02/26 11:33:42;;;;;;;854.80;789.90;;;7.30;99.90;;;;;;5001628;28;20483;-70
2024/02/26 11:36:10;;;;;;;856.55;789.67;;;7.30;99.90;;;;;;4995041;28;20842;-71
2024/02/26 11:38:40;;;;;;;861.92;792.83;;;7.30;99.90;;;;;;5013540;28;20451;-71
2024/02/26 11:41:08;;;;;;;861.93;799.67;;;7.30;99.90;;;;;;5007837;28;20204;-70
2024/02/26 11:43:54;;;;;;;865.17;803.97;;;7.30;99.90;;;;;;5009356;28;20478;-71
2024/02/26 11:46:31;;;;;;;856.27;790.30;;;7.20;99.90;;;;;;4994462;28;20500;-70
2024/02/26 11:49:00;;;;;;;862.93;793.53;;;7.10;99.90;;;;;;4994463;28;20548;-71
2024/02/26 11:51:27;;;;;;;862.93;794.57;;;7.20;99.90;;;;;;4994691;28;20894;-71
2024/02/26 11:53:56;;;;;;;858.63;789.00;;;7.10;99.90;;;;;;5008686;28;20477;-71
2024/02/26 11:56:26;;;;;;;852.27;779.80;;;7.10;99.90;;;;;;5010622;28;20914;-71
2024/02/26 11:58:59;;;;;;;856.03;784.57;;;7.20;99.90;;;;;;4994506;28;20981;-71
2024/02/26 12:01:52;;;;;;;849.27;776.67;;;7.20;99.90;;;;;;5013538;28;20457;-71
2024/02/26 12:04:20;;;;;;;843.83;769.93;;;7.20;99.90;;;;;;5003184;28;20537;-70
2024/02/26 12:06:50;;;;;;;844.57;770.10;;;7.30;99.90;;;;;;5008152;28;20457;-71
2024/02/26 12:09:37;;;;;;;860.53;784.20;;;7.30;99.90;;;;;;5004403;28;20949;-71
2024/02/26 12:12:05;;;;;;;852.67;778.53;;;7.30;99.90;;;;;;5010427;28;20459;-71
2024/02/26 12:14:34;;;;;;;844.20;769.30;;;7.30;99.90;;;;;;5013368;28;20492;-70
2024/02/26 12:17:06;;;;;;;842.60;769.10;;;7.30;99.90;;;;;;5013694;28;20464;-70
2024/02/26 12:19:34;;;;;;;889.03;813.10;;;7.40;99.90;;;;;;5014048;28;20453;-70
2024/02/26 12:22:01;;;;;;;882.10;807.10;;;7.50;99.90;;;;;;5013958;28;20463;-70
2024/02/26 12:24:28;;;;;;;867.10;792.57;;;7.50;99.90;;;;;;5013429;28;20449;-70